sensor_id;sensor_type;location;lat;lon;timestamp;temperature;humidity
5560;DHT22;2803;47.916;8.074;2023-09-19T00:01:08;19.70;99.90
5560;DHT22;2803;47.916;8.074;2023-09-19T00:03:39;19.50;99.90
5560;DHT22;2803;47.916;8.074;2023-09-19T00:06:07;19.30;99.90
5560;DHT22;2803;47.916;8.074;2023-09-19T00:08:34;19.30;99.90
5560;DHT22;2803;47.916;8.074;2023-09-19T00:11:01;19.10;99.90
5560;DHT22;2803;47.916;8.074;2023-09-19T00:13:28;19.10;99.90
5560;DHT22;2803;47.916;8.074;2023-09-19T00:15:56;19.20;99.90
5560;DHT22;2803;47.916;8.074;2023-09-19T00:18:25;19.30;99.90
5560;DHT22;2803;47.916;8.074;2023-09-19T00:20:58;19.40;99.90
5560;DHT22;2803;47.916;8.074;2023-09-19T00:23:25;19.50;99.90
5560;DHT22;2803;47.916;8.074;2023-09-19T00:25:52;19.60;99.90
5560;DHT22;2803;47.916;8.074;2023-09-19T00:28:23;19.50;99.90
5560;DHT22;2803;47.916;8.074;2023-09-19T00:30:49;19.60;99.90
5560;DHT22;2803;47.916;8.074;2023-09-19T00:33:16;19.60;99.90
5560;DHT22;2803;47.916;8.074;2023-09-19T00:35:48;19.60;99.90
5560;DHT22;2803;47.916;8.074;2023-09-19T00:38:16;19.40;99.90
5560;DHT22;2803;47.916;8.074;2023-09-19T00:40:45;19.40;99.90
5560;DHT22;2803;47.916;8.074;2023-09-19T00:43:11;19.40;99.90
5560;DHT22;2803;47.916;8.074;2023-09-19T00:45:39;19.50;99.90
5560;DHT22;2803;47.916;8.074;2023-09-19T00:48:09;19.60;99.90
5560;DHT22;2803;47.916;8.074;2023-09-19T00:50:36;19.50;99.90
5560;DHT22;2803;47.916;8.074;2023-09-19T00:53:03;19.40;99.90
5560;DHT22;2803;47.916;8.074;2023-09-19T00:55:34;19.30;99.90
5560;DHT22;2803;47.916;8.074;2023-09-19T00:58:03;19.40;99.90
5560;DHT22;2803;47.916;8.074;2023-09-19T01:00:32;19.50;99.90
5560;DHT22;2803;47.916;8.074;2023-09-19T01:02:59;19.60;99.90
5560;DHT22;2803;47.916;8.074;2023-09-19T01:05:26;19.50;99.90
5560;DHT22;2803;47.916;8.074;2023-09-19T01:07:53;19.50;99.90
5560;DHT22;2803;47.916;8.074;2023-09-19T01:10:21;19.40;99.90
5560;DHT22;2803;47.916;8.074;2023-09-19T01:12:58;19.40;99.90
5560;DHT22;2803;47.916;8.074;2023-09-19T01:15:40;19.30;99.90
5560;DHT22;2803;47.916;8.074;2023-09-19T01:18:16;19.30;99.90
5560;DHT22;2803;47.916;8.074;2023-09-19T01:20:49;19.40;99.90
5560;DHT22;2803;47.916;8.074;2023-09-19T01:23:23;19.40;99.90
5560;DHT22;2803;47.916;8.074;2023-09-19T01:26:06;19.10;99.90
5560;DHT22;2803;47.916;8.074;2023-09-19T01:28:45;19.10;99.90
5560;DHT22;2803;47.916;8.074;2023-09-19T01:31:21;19.00;99.90
5560;DHT22;2803;47.916;8.074;2023-09-19T01:33:59;18.90;99.90
5560;DHT22;2803;47.916;8.074;2023-09-19T01:36:27;18.80;99.90
5560;DHT22;2803;47.916;8.074;2023-09-19T01:38:55;18.80;99.90
5560;DHT22;2803;47.916;8.074;2023-09-19T01:41:29;18.70;99.90
5560;DHT22;2803;47.916;8.074;2023-09-19T01:44:00;18.80;99.90
5560;DHT22;2803;47.916;8.074;2023-09-19T01:46:34;18.80;99.90
5560;DHT22;2803;47.916;8.074;2023-09-19T01:49:08;18.70;99.90
5560;DHT22;2803;47.916;8.074;2023-09-19T01:51:46;18.70;99.90
5560;DHT22;2803;47.916;8.074;2023-09-19T01:54:20;18.80;99.90
5560;DHT22;2803;47.916;8.074;2023-09-19T01:57:07;19.10;99.90
5560;DHT22;2803;47.916;8.074;2023-09-19T01:59:40;19.20;99.90
5560;DHT22;2803;47.916;8.074;2023-09-19T02:02:08;19.30;99.90
5560;DHT22;2803;47.916;8.074;2023-09-19T02:04:36;19.00;99.90
5560;DHT22;2803;47.916;8.074;2023-09-19T02:07:02;19.00;99.90
5560;DHT22;2803;47.916;8.074;2023-09-19T02:09:31;19.10;99.90
5560;DHT22;2803;47.916;8.074;2023-09-19T02:11:58;19.10;99.90
5560;DHT22;2803;47.916;8.074;2023-09-19T02:14:25;18.90;99.90
5560;DHT22;2803;47.916;8.074;2023-09-19T02:16:52;18.90;99.90
5560;DHT22;2803;47.916;8.074;2023-09-19T02:19:20;18.80;99.90
5560;DHT22;2803;47.916;8.074;2023-09-19T02:21:47;18.80;99.90
5560;DHT22;2803;47.916;8.074;2023-09-19T02:24:14;18.90;99.90
5560;DHT22;2803;47.916;8.074;2023-09-19T02:26:41;18.90;99.90
5560;DHT22;2803;47.916;8.074;2023-09-19T02:29:09;18.80;99.90
5560;DHT22;2803;47.916;8.074;2023-09-19T02:31:36;18.90;99.90
5560;DHT22;2803;47.916;8.074;2023-09-19T02:34:02;19.10;99.90
5560;DHT22;2803;47.916;8.074;2023-09-19T02:36:32;19.10;99.90
5560;DHT22;2803;47.916;8.074;2023-09-19T02:38:58;19.10;99.90
5560;DHT22;2803;47.916;8.074;2023-09-19T02:41:25;19.20;99.90
5560;DHT22;2803;47.916;8.074;2023-09-19T02:43:54;19.10;99.90
5560;DHT22;2803;47.916;8.074;2023-09-19T02:46:22;19.00;99.90
5560;DHT22;2803;47.916;8.074;2023-09-19T02:48:48;19.10;99.90
5560;DHT22;2803;47.916;8.074;2023-09-19T02:51:15;19.20;99.90
5560;DHT22;2803;47.916;8.074;2023-09-19T02:53:43;19.20;99.90
5560;DHT22;2803;47.916;8.074;2023-09-19T02:56:09;19.20;99.90
5560;DHT22;2803;47.916;8.074;2023-09-19T02:58:39;19.20;99.90
5560;DHT22;2803;47.916;8.074;2023-09-19T03:01:08;19.10;99.90
5560;DHT22;2803;47.916;8.074;2023-09-19T03:03:36;19.10;99.90
5560;DHT22;2803;47.916;8.074;2023-09-19T03:06:04;19.10;99.90
5560;DHT22;2803;47.916;8.074;2023-09-19T03:08:31;19.10;99.90
5560;DHT22;2803;47.916;8.074;2023-09-19T03:11:03;19.20;99.90
5560;DHT22;2803;47.916;8.074;2023-09-19T03:13:31;19.30;99.90
5560;DHT22;2803;47.916;8.074;2023-09-19T03:15:57;19.30;99.90
5560;DHT22;2803;47.916;8.074;2023-09-19T03:18:24;19.30;99.90
5560;DHT22;2803;47.916;8.074;2023-09-19T03:20:53;19.30;99.90
5560;DHT22;2803;47.916;8.074;2023-09-19T03:23:20;19.30;99.90
5560;DHT22;2803;47.916;8.074;2023-09-19T03:25:47;19.30;99.90
5560;DHT22;2803;47.916;8.074;2023-09-19T03:28:15;19.20;99.90
5560;DHT22;2803;47.916;8.074;2023-09-19T03:30:42;19.30;99.90
5560;DHT22;2803;47.916;8.074;2023-09-19T03:33:09;19.10;99.90
5560;DHT22;2803;47.916;8.074;2023-09-19T03:35:35;19.20;99.90
5560;DHT22;2803;47.916;8.074;2023-09-19T03:38:02;18.80;99.90
5560;DHT22;2803;47.916;8.074;2023-09-19T03:40:29;19.00;99.90
5560;DHT22;2803;47.916;8.074;2023-09-19T03:42:56;19.10;99.90
5560;DHT22;2803;47.916;8.074;2023-09-19T03:45:24;19.20;99.90
5560;DHT22;2803;47.916;8.074;2023-09-19T03:47:50;19.20;99.90
5560;DHT22;2803;47.916;8.074;2023-09-19T03:50:18;19.30;99.90
5560;DHT22;2803;47.916;8.074;2023-09-19T03:52:44;19.30;99.90
5560;DHT22;2803;47.916;8.074;2023-09-19T03:55:11;19.30;99.90
5560;DHT22;2803;47.916;8.074;2023-09-19T03:57:38;18.90;99.90
5560;DHT22;2803;47.916;8.074;2023-09-19T04:00:05;19.00;99.90
5560;DHT22;2803;47.916;8.074;2023-09-19T04:02:38;19.10;99.90
5560;DHT22;2803;47.916;8.074;2023-09-19T04:05:05;19.10;99.90
5560;DHT22;2803;47.916;8.074;2023-09-19T04:07:32;19.10;99.90
5560;DHT22;2803;47.916;8.074;2023-09-19T04:09:59;19.20;99.90
5560;DHT22;2803;47.916;8.074;2023-09-19T04:12:26;19.20;99.90
5560;DHT22;2803;47.916;8.074;2023-09-19T04:14:53;19.30;99.90
5560;DHT22;2803;47.916;8.074;2023-09-19T04:17:19;19.30;99.90
5560;DHT22;2803;47.916;8.074;2023-09-19T04:19:47;19.30;99.90
5560;DHT22;2803;47.916;8.074;2023-09-19T04:22:14;19.20;99.90
5560;DHT22;2803;47.916;8.074;2023-09-19T04:24:40;19.00;99.90
5560;DHT22;2803;47.916;8.074;2023-09-19T04:27:07;19.00;99.90
5560;DHT22;2803;47.916;8.074;2023-09-19T04:29:35;19.10;99.90
5560;DHT22;2803;47.916;8.074;2023-09-19T04:32:03;18.50;99.90
5560;DHT22;2803;47.916;8.074;2023-09-19T04:34:31;18.40;99.90
5560;DHT22;2803;47.916;8.074;2023-09-19T04:36:59;18.70;99.90
5560;DHT22;2803;47.916;8.074;2023-09-19T04:39:26;18.80;99.90
5560;DHT22;2803;47.916;8.074;2023-09-19T04:41:53;18.90;99.90
5560;DHT22;2803;47.916;8.074;2023-09-19T04:44:20;18.80;99.90
5560;DHT22;2803;47.916;8.074;2023-09-19T04:46:47;19.00;99.90
5560;DHT22;2803;47.916;8.074;2023-09-19T04:49:13;19.00;99.90
5560;DHT22;2803;47.916;8.074;2023-09-19T04:51:40;18.70;99.90
5560;DHT22;2803;47.916;8.074;2023-09-19T04:54:09;18.80;99.90
5560;DHT22;2803;47.916;8.074;2023-09-19T04:56:36;19.10;99.90
5560;DHT22;2803;47.916;8.074;2023-09-19T04:59:05;19.20;99.90
5560;DHT22;2803;47.916;8.074;2023-09-19T05:01:32;19.20;99.90
5560;DHT22;2803;47.916;8.074;2023-09-19T05:03:58;19.20;99.90
5560;DHT22;2803;47.916;8.074;2023-09-19T05:06:26;19.10;99.90
5560;DHT22;2803;47.916;8.074;2023-09-19T05:08:52;18.80;99.90
5560;DHT22;2803;47.916;8.074;2023-09-19T05:11:20;18.50;99.90
5560;DHT22;2803;47.916;8.074;2023-09-19T05:13:48;18.60;99.90
5560;DHT22;2803;47.916;8.074;2023-09-19T05:16:15;18.90;99.90
5560;DHT22;2803;47.916;8.074;2023-09-19T05:18:42;18.90;99.90
5560;DHT22;2803;47.916;8.074;2023-09-19T05:21:08;18.70;99.90
5560;DHT22;2803;47.916;8.074;2023-09-19T05:23:35;18.80;99.90
5560;DHT22;2803;47.916;8.074;2023-09-19T05:26:02;18.60;99.90
5560;DHT22;2803;47.916;8.074;2023-09-19T05:28:30;18.80;99.90
5560;DHT22;2803;47.916;8.074;2023-09-19T05:31:00;18.90;99.90
5560;DHT22;2803;47.916;8.074;2023-09-19T05:33:27;18.90;99.90
5560;DHT22;2803;47.916;8.074;2023-09-19T05:35:56;18.90;99.90
5560;DHT22;2803;47.916;8.074;2023-09-19T05:38:23;18.80;99.90
5560;DHT22;2803;47.916;8.074;2023-09-19T05:40:51;18.70;99.90
5560;DHT22;2803;47.916;8.074;2023-09-19T05:43:18;18.70;99.90
5560;DHT22;2803;47.916;8.074;2023-09-19T05:45:46;18.80;99.90
5560;DHT22;2803;47.916;8.074;2023-09-19T05:48:14;18.80;99.90
5560;DHT22;2803;47.916;8.074;2023-09-19T05:50:41;18.90;99.90
5560;DHT22;2803;47.916;8.074;2023-09-19T05:53:08;18.90;99.90
5560;DHT22;2803;47.916;8.074;2023-09-19T05:55:40;18.70;99.90
5560;DHT22;2803;47.916;8.074;2023-09-19T05:58:06;18.70;99.90
5560;DHT22;2803;47.916;8.074;2023-09-19T06:00:34;18.80;99.90
5560;DHT22;2803;47.916;8.074;2023-09-19T06:03:03;18.90;99.90
5560;DHT22;2803;47.916;8.074;2023-09-19T06:05:30;19.00;99.90
5560;DHT22;2803;47.916;8.074;2023-09-19T06:07:57;19.10;99.90
5560;DHT22;2803;47.916;8.074;2023-09-19T06:10:26;19.10;99.90
5560;DHT22;2803;47.916;8.074;2023-09-19T06:12:53;19.20;99.90
5560;DHT22;2803;47.916;8.074;2023-09-19T06:15:21;18.80;99.90
5560;DHT22;2803;47.916;8.074;2023-09-19T06:17:48;19.00;99.90
5560;DHT22;2803;47.916;8.074;2023-09-19T06:20:17;19.10;99.90
5560;DHT22;2803;47.916;8.074;2023-09-19T06:22:45;19.10;99.90
5560;DHT22;2803;47.916;8.074;2023-09-19T06:25:13;19.20;99.90
5560;DHT22;2803;47.916;8.074;2023-09-19T06:27:42;19.30;99.90
5560;DHT22;2803;47.916;8.074;2023-09-19T06:30:10;18.80;99.90
5560;DHT22;2803;47.916;8.074;2023-09-19T06:32:38;18.80;99.90
5560;DHT22;2803;47.916;8.074;2023-09-19T06:35:05;18.60;99.90
5560;DHT22;2803;47.916;8.074;2023-09-19T06:37:35;18.70;99.90
5560;DHT22;2803;47.916;8.074;2023-09-19T06:40:05;18.90;99.90
5560;DHT22;2803;47.916;8.074;2023-09-19T06:42:31;19.10;99.90
5560;DHT22;2803;47.916;8.074;2023-09-19T06:44:58;19.20;99.90
5560;DHT22;2803;47.916;8.074;2023-09-19T06:47:25;19.40;99.90
5560;DHT22;2803;47.916;8.074;2023-09-19T06:49:52;19.40;99.90
5560;DHT22;2803;47.916;8.074;2023-09-19T06:52:18;19.30;99.90
5560;DHT22;2803;47.916;8.074;2023-09-19T06:54:48;19.00;99.90
5560;DHT22;2803;47.916;8.074;2023-09-19T06:57:17;18.50;99.90
5560;DHT22;2803;47.916;8.074;2023-09-19T06:59:45;18.30;99.90
5560;DHT22;2803;47.916;8.074;2023-09-19T07:02:11;17.70;99.90
5560;DHT22;2803;47.916;8.074;2023-09-19T07:04:39;17.80;99.90
5560;DHT22;2803;47.916;8.074;2023-09-19T07:07:06;17.70;99.90
5560;DHT22;2803;47.916;8.074;2023-09-19T07:09:34;18.00;99.90
5560;DHT22;2803;47.916;8.074;2023-09-19T07:12:02;18.00;99.90
5560;DHT22;2803;47.916;8.074;2023-09-19T07:14:29;18.50;99.90
5560;DHT22;2803;47.916;8.074;2023-09-19T07:16:55;18.50;99.90
5560;DHT22;2803;47.916;8.074;2023-09-19T07:19:22;18.80;99.90
5560;DHT22;2803;47.916;8.074;2023-09-19T07:21:48;18.10;99.90
5560;DHT22;2803;47.916;8.074;2023-09-19T07:24:16;18.20;99.90
5560;DHT22;2803;47.916;8.074;2023-09-19T07:26:42;17.50;99.90
5560;DHT22;2803;47.916;8.074;2023-09-19T07:29:10;18.10;99.90
5560;DHT22;2803;47.916;8.074;2023-09-19T07:31:37;18.20;99.90
5560;DHT22;2803;47.916;8.074;2023-09-19T07:34:03;18.40;99.90
5560;DHT22;2803;47.916;8.074;2023-09-19T07:36:31;18.50;99.90
5560;DHT22;2803;47.916;8.074;2023-09-19T07:38:57;18.40;99.90
5560;DHT22;2803;47.916;8.074;2023-09-19T07:41:25;18.40;99.90
5560;DHT22;2803;47.916;8.074;2023-09-19T07:43:52;19.00;99.90
5560;DHT22;2803;47.916;8.074;2023-09-19T07:46:20;18.80;99.90
5560;DHT22;2803;47.916;8.074;2023-09-19T07:48:50;19.20;99.90
5560;DHT22;2803;47.916;8.074;2023-09-19T07:51:16;18.60;99.90
5560;DHT22;2803;47.916;8.074;2023-09-19T07:53:43;19.10;99.90
5560;DHT22;2803;47.916;8.074;2023-09-19T07:56:10;19.20;99.90
5560;DHT22;2803;47.916;8.074;2023-09-19T07:58:39;19.30;99.90
5560;DHT22;2803;47.916;8.074;2023-09-19T08:01:10;19.30;99.90
5560;DHT22;2803;47.916;8.074;2023-09-19T08:03:40;19.20;99.90
5560;DHT22;2803;47.916;8.074;2023-09-19T08:06:09;19.00;99.90
5560;DHT22;2803;47.916;8.074;2023-09-19T08:08:36;19.10;99.90
5560;DHT22;2803;47.916;8.074;2023-09-19T08:11:04;18.90;99.90
5560;DHT22;2803;47.916;8.074;2023-09-19T08:13:37;18.90;99.90
5560;DHT22;2803;47.916;8.074;2023-09-19T08:16:06;19.30;99.90
5560;DHT22;2803;47.916;8.074;2023-09-19T08:18:33;19.10;99.90
5560;DHT22;2803;47.916;8.074;2023-09-19T08:21:01;19.30;99.90
5560;DHT22;2803;47.916;8.074;2023-09-19T08:23:27;19.50;99.90
5560;DHT22;2803;47.916;8.074;2023-09-19T08:25:56;19.60;99.90
5560;DHT22;2803;47.916;8.074;2023-09-19T08:28:23;19.70;99.90
5560;DHT22;2803;47.916;8.074;2023-09-19T08:30:50;19.00;99.90
5560;DHT22;2803;47.916;8.074;2023-09-19T08:33:16;19.30;99.90
5560;DHT22;2803;47.916;8.074;2023-09-19T08:35:43;18.70;99.90
5560;DHT22;2803;47.916;8.074;2023-09-19T08:38:12;19.30;99.90
5560;DHT22;2803;47.916;8.074;2023-09-19T08:40:40;19.60;99.90
5560;DHT22;2803;47.916;8.074;2023-09-19T08:43:07;19.20;99.90
5560;DHT22;2803;47.916;8.074;2023-09-19T08:45:35;19.10;99.90
5560;DHT22;2803;47.916;8.074;2023-09-19T08:48:12;19.20;99.90
5560;DHT22;2803;47.916;8.074;2023-09-19T08:50:47;19.20;99.90
5560;DHT22;2803;47.916;8.074;2023-09-19T08:53:19;19.40;99.90
5560;DHT22;2803;47.916;8.074;2023-09-19T08:55:49;19.60;99.90
5560;DHT22;2803;47.916;8.074;2023-09-19T08:58:20;19.90;99.90
5560;DHT22;2803;47.916;8.074;2023-09-19T09:00:48;20.30;99.90
5560;DHT22;2803;47.916;8.074;2023-09-19T09:03:18;19.90;99.90
5560;DHT22;2803;47.916;8.074;2023-09-19T09:05:46;20.10;99.90
5560;DHT22;2803;47.916;8.074;2023-09-19T09:08:18;20.10;99.90
5560;DHT22;2803;47.916;8.074;2023-09-19T09:10:47;19.80;99.90
5560;DHT22;2803;47.916;8.074;2023-09-19T09:13:14;19.70;99.90
5560;DHT22;2803;47.916;8.074;2023-09-19T09:15:41;19.60;99.90
5560;DHT22;2803;47.916;8.074;2023-09-19T09:18:10;19.80;99.90
5560;DHT22;2803;47.916;8.074;2023-09-19T09:20:37;19.90;99.90
5560;DHT22;2803;47.916;8.074;2023-09-19T09:23:04;19.90;99.90
5560;DHT22;2803;47.916;8.074;2023-09-19T09:25:48;19.90;99.90
5560;DHT22;2803;47.916;8.074;2023-09-19T09:28:19;20.00;99.90
5560;DHT22;2803;47.916;8.074;2023-09-19T09:30:47;19.90;99.90
5560;DHT22;2803;47.916;8.074;2023-09-19T09:33:14;20.20;99.90
5560;DHT22;2803;47.916;8.074;2023-09-19T09:35:50;20.40;99.90
5560;DHT22;2803;47.916;8.074;2023-09-19T09:38:23;20.30;99.90
5560;DHT22;2803;47.916;8.074;2023-09-19T09:40:55;20.40;99.90
5560;DHT22;2803;47.916;8.074;2023-09-19T09:43:30;19.80;99.90
5560;DHT22;2803;47.916;8.074;2023-09-19T09:46:10;19.60;99.90
5560;DHT22;2803;47.916;8.074;2023-09-19T09:49:05;19.80;99.90
5560;DHT22;2803;47.916;8.074;2023-09-19T09:51:42;20.10;99.90
5560;DHT22;2803;47.916;8.074;2023-09-19T09:54:11;20.50;99.90
5560;DHT22;2803;47.916;8.074;2023-09-19T09:56:54;20.80;99.90
5560;DHT22;2803;47.916;8.074;2023-09-19T09:59:44;20.80;99.90
5560;DHT22;2803;47.916;8.074;2023-09-19T10:02:12;20.90;99.90
5560;DHT22;2803;47.916;8.074;2023-09-19T10:04:42;20.80;99.90
5560;DHT22;2803;47.916;8.074;2023-09-19T10:07:25;21.00;99.90
5560;DHT22;2803;47.916;8.074;2023-09-19T10:09:53;21.50;99.90
5560;DHT22;2803;47.916;8.074;2023-09-19T10:12:27;22.10;99.90
5560;DHT22;2803;47.916;8.074;2023-09-19T10:14:56;22.20;99.90
5560;DHT22;2803;47.916;8.074;2023-09-19T10:17:24;22.50;99.90
5560;DHT22;2803;47.916;8.074;2023-09-19T10:19:55;22.70;99.90
5560;DHT22;2803;47.916;8.074;2023-09-19T10:22:23;22.70;99.90
5560;DHT22;2803;47.916;8.074;2023-09-19T10:24:53;22.40;99.90
5560;DHT22;2803;47.916;8.074;2023-09-19T10:27:20;22.60;99.90
5560;DHT22;2803;47.916;8.074;2023-09-19T10:29:49;22.50;99.90
5560;DHT22;2803;47.916;8.074;2023-09-19T10:32:17;22.50;99.90
5560;DHT22;2803;47.916;8.074;2023-09-19T10:34:46;22.40;99.90
5560;DHT22;2803;47.916;8.074;2023-09-19T10:37:13;22.70;99.90
5560;DHT22;2803;47.916;8.074;2023-09-19T10:39:46;23.20;99.90
5560;DHT22;2803;47.916;8.074;2023-09-19T10:42:16;23.40;99.90
5560;DHT22;2803;47.916;8.074;2023-09-19T10:44:45;23.70;99.90
5560;DHT22;2803;47.916;8.074;2023-09-19T10:47:16;24.00;99.90
5560;DHT22;2803;47.916;8.074;2023-09-19T10:49:44;24.30;99.90
5560;DHT22;2803;47.916;8.074;2023-09-19T10:52:13;24.60;99.90
5560;DHT22;2803;47.916;8.074;2023-09-19T10:54:46;24.80;99.90
5560;DHT22;2803;47.916;8.074;2023-09-19T10:57:19;25.30;99.90
5560;DHT22;2803;47.916;8.074;2023-09-19T11:00:02;25.10;99.90
5560;DHT22;2803;47.916;8.074;2023-09-19T11:05:42;25.50;99.90
5560;DHT22;2803;47.916;8.074;2023-09-19T11:08:10;26.20;99.90
5560;DHT22;2803;47.916;8.074;2023-09-19T11:10:45;26.70;99.90
5560;DHT22;2803;47.916;8.074;2023-09-19T11:13:28;26.10;99.90
5560;DHT22;2803;47.916;8.074;2023-09-19T11:16:05;25.90;99.90
5560;DHT22;2803;47.916;8.074;2023-09-19T11:18:54;26.40;99.90
5560;DHT22;2803;47.916;8.074;2023-09-19T11:24:32;27.60;99.90
5560;DHT22;2803;47.916;8.074;2023-09-19T11:27:18;28.60;99.40
5560;DHT22;2803;47.916;8.074;2023-09-19T11:29:45;28.00;97.30
5560;DHT22;2803;47.916;8.074;2023-09-19T11:32:14;26.70;97.70
5560;DHT22;2803;47.916;8.074;2023-09-19T11:34:44;26.70;98.70
5560;DHT22;2803;47.916;8.074;2023-09-19T11:40:09;27.90;97.30
5560;DHT22;2803;47.916;8.074;2023-09-19T11:42:42;27.60;97.00
5560;DHT22;2803;47.916;8.074;2023-09-19T11:48:24;26.80;97.60
5560;DHT22;2803;47.916;8.074;2023-09-19T11:50:51;26.50;97.90
5560;DHT22;2803;47.916;8.074;2023-09-19T11:53:21;26.50;98.40
5560;DHT22;2803;47.916;8.074;2023-09-19T11:55:49;26.10;99.40
5560;DHT22;2803;47.916;8.074;2023-09-19T11:58:18;25.50;98.60
5560;DHT22;2803;47.916;8.074;2023-09-19T12:00:45;25.00;99.70
5560;DHT22;2803;47.916;8.074;2023-09-19T12:03:13;25.70;99.20
5560;DHT22;2803;47.916;8.074;2023-09-19T12:05:40;26.60;99.00
5560;DHT22;2803;47.916;8.074;2023-09-19T12:08:07;26.20;98.40
5560;DHT22;2803;47.916;8.074;2023-09-19T12:10:45;26.00;98.00
5560;DHT22;2803;47.916;8.074;2023-09-19T12:13:17;25.00;99.30
5560;DHT22;2803;47.916;8.074;2023-09-19T12:15:43;24.10;99.90
5560;DHT22;2803;47.916;8.074;2023-09-19T12:18:26;23.40;99.90
5560;DHT22;2803;47.916;8.074;2023-09-19T12:20:53;22.70;99.90
5560;DHT22;2803;47.916;8.074;2023-09-19T12:23:20;22.40;99.90
5560;DHT22;2803;47.916;8.074;2023-09-19T12:25:47;22.50;99.90
5560;DHT22;2803;47.916;8.074;2023-09-19T12:28:19;22.40;99.90
5560;DHT22;2803;47.916;8.074;2023-09-19T12:30:47;22.60;99.90
5560;DHT22;2803;47.916;8.074;2023-09-19T12:33:16;22.90;99.90
5560;DHT22;2803;47.916;8.074;2023-09-19T12:35:44;22.90;99.90
5560;DHT22;2803;47.916;8.074;2023-09-19T12:38:11;22.90;99.90
5560;DHT22;2803;47.916;8.074;2023-09-19T12:40:38;22.70;99.90
5560;DHT22;2803;47.916;8.074;2023-09-19T12:43:08;22.70;99.90
5560;DHT22;2803;47.916;8.074;2023-09-19T12:45:42;22.40;99.90
5560;DHT22;2803;47.916;8.074;2023-09-19T12:48:19;22.40;99.90
5560;DHT22;2803;47.916;8.074;2023-09-19T12:51:02;22.20;99.90
5560;DHT22;2803;47.916;8.074;2023-09-19T12:53:32;22.50;99.90
5560;DHT22;2803;47.916;8.074;2023-09-19T12:55:59;22.90;99.90
5560;DHT22;2803;47.916;8.074;2023-09-19T12:58:26;22.80;99.90
5560;DHT22;2803;47.916;8.074;2023-09-19T13:00:54;22.80;99.90
5560;DHT22;2803;47.916;8.074;2023-09-19T13:03:26;23.00;99.90
5560;DHT22;2803;47.916;8.074;2023-09-19T13:05:55;23.10;99.90
5560;DHT22;2803;47.916;8.074;2023-09-19T13:08:25;22.80;99.90
5560;DHT22;2803;47.916;8.074;2023-09-19T13:11:06;23.20;99.90
5560;DHT22;2803;47.916;8.074;2023-09-19T13:13:37;23.60;99.90
5560;DHT22;2803;47.916;8.074;2023-09-19T13:16:05;23.70;99.90
5560;DHT22;2803;47.916;8.074;2023-09-19T13:18:42;23.30;99.90
5560;DHT22;2803;47.916;8.074;2023-09-19T13:21:12;23.50;99.90
5560;DHT22;2803;47.916;8.074;2023-09-19T13:23:41;23.40;99.90
5560;DHT22;2803;47.916;8.074;2023-09-19T13:26:09;23.40;99.90
5560;DHT22;2803;47.916;8.074;2023-09-19T13:28:37;23.40;99.90
5560;DHT22;2803;47.916;8.074;2023-09-19T13:31:05;23.70;99.90
5560;DHT22;2803;47.916;8.074;2023-09-19T13:33:33;23.60;99.90
5560;DHT22;2803;47.916;8.074;2023-09-19T13:36:01;23.70;99.90
5560;DHT22;2803;47.916;8.074;2023-09-19T13:38:27;24.00;99.90
5560;DHT22;2803;47.916;8.074;2023-09-19T13:40:54;23.80;99.90
5560;DHT22;2803;47.916;8.074;2023-09-19T13:43:21;24.00;99.90
5560;DHT22;2803;47.916;8.074;2023-09-19T13:45:48;24.40;99.90
5560;DHT22;2803;47.916;8.074;2023-09-19T13:48:17;23.80;99.90
5560;DHT22;2803;47.916;8.074;2023-09-19T13:50:45;23.90;99.90
5560;DHT22;2803;47.916;8.074;2023-09-19T13:53:12;24.00;99.90
5560;DHT22;2803;47.916;8.074;2023-09-19T13:55:38;23.90;99.90
5560;DHT22;2803;47.916;8.074;2023-09-19T13:58:05;23.90;99.90
5560;DHT22;2803;47.916;8.074;2023-09-19T14:00:33;24.00;99.90
5560;DHT22;2803;47.916;8.074;2023-09-19T14:03:00;23.80;99.90
5560;DHT22;2803;47.916;8.074;2023-09-19T14:05:29;23.50;99.90
5560;DHT22;2803;47.916;8.074;2023-09-19T14:07:56;23.60;99.90
5560;DHT22;2803;47.916;8.074;2023-09-19T14:10:24;23.70;99.90
5560;DHT22;2803;47.916;8.074;2023-09-19T14:12:52;23.50;99.90
5560;DHT22;2803;47.916;8.074;2023-09-19T14:15:19;23.90;99.90
5560;DHT22;2803;47.916;8.074;2023-09-19T14:17:47;23.80;99.90
5560;DHT22;2803;47.916;8.074;2023-09-19T14:20:14;24.10;99.90
5560;DHT22;2803;47.916;8.074;2023-09-19T14:22:42;24.10;99.90
5560;DHT22;2803;47.916;8.074;2023-09-19T14:25:09;24.40;99.90
5560;DHT22;2803;47.916;8.074;2023-09-19T14:27:35;24.40;99.90
5560;DHT22;2803;47.916;8.074;2023-09-19T14:30:02;24.30;99.90
5560;DHT22;2803;47.916;8.074;2023-09-19T14:32:29;24.50;99.90
5560;DHT22;2803;47.916;8.074;2023-09-19T14:34:56;24.50;99.90
5560;DHT22;2803;47.916;8.074;2023-09-19T14:37:23;24.50;99.90
5560;DHT22;2803;47.916;8.074;2023-09-19T14:39:50;24.20;99.90
5560;DHT22;2803;47.916;8.074;2023-09-19T14:42:17;24.60;99.90
5560;DHT22;2803;47.916;8.074;2023-09-19T14:44:44;24.40;99.90
5560;DHT22;2803;47.916;8.074;2023-09-19T14:47:12;24.50;99.90
5560;DHT22;2803;47.916;8.074;2023-09-19T14:49:39;24.50;99.90
5560;DHT22;2803;47.916;8.074;2023-09-19T14:52:07;25.10;99.90
5560;DHT22;2803;47.916;8.074;2023-09-19T14:54:35;25.30;99.90
5560;DHT22;2803;47.916;8.074;2023-09-19T14:57:04;25.10;99.90
5560;DHT22;2803;47.916;8.074;2023-09-19T14:59:31;25.20;99.90
5560;DHT22;2803;47.916;8.074;2023-09-19T15:01:58;25.70;99.90
5560;DHT22;2803;47.916;8.074;2023-09-19T15:04:24;25.70;99.90
5560;DHT22;2803;47.916;8.074;2023-09-19T15:06:51;26.10;99.90
5560;DHT22;2803;47.916;8.074;2023-09-19T15:09:20;26.50;99.90
5560;DHT22;2803;47.916;8.074;2023-09-19T15:11:47;26.40;99.90
5560;DHT22;2803;47.916;8.074;2023-09-19T15:14:15;26.10;99.90
5560;DHT22;2803;47.916;8.074;2023-09-19T15:16:42;25.70;99.90
5560;DHT22;2803;47.916;8.074;2023-09-19T15:19:09;25.40;99.90
5560;DHT22;2803;47.916;8.074;2023-09-19T15:21:36;25.10;99.90
5560;DHT22;2803;47.916;8.074;2023-09-19T15:24:04;25.00;99.90
5560;DHT22;2803;47.916;8.074;2023-09-19T15:26:33;25.00;99.90
5560;DHT22;2803;47.916;8.074;2023-09-19T15:29:00;25.20;99.90
5560;DHT22;2803;47.916;8.074;2023-09-19T15:31:28;25.40;99.90
5560;DHT22;2803;47.916;8.074;2023-09-19T15:33:55;25.90;99.90
5560;DHT22;2803;47.916;8.074;2023-09-19T15:36:23;25.60;99.90
5560;DHT22;2803;47.916;8.074;2023-09-19T15:38:58;25.00;99.90
5560;DHT22;2803;47.916;8.074;2023-09-19T15:41:26;24.60;99.90
5560;DHT22;2803;47.916;8.074;2023-09-19T15:43:53;24.30;99.90
5560;DHT22;2803;47.916;8.074;2023-09-19T15:46:20;24.30;99.90
5560;DHT22;2803;47.916;8.074;2023-09-19T15:48:48;24.00;99.90
5560;DHT22;2803;47.916;8.074;2023-09-19T15:51:15;24.00;99.90
5560;DHT22;2803;47.916;8.074;2023-09-19T15:53:44;24.10;99.90
5560;DHT22;2803;47.916;8.074;2023-09-19T15:56:12;24.00;99.90
5560;DHT22;2803;47.916;8.074;2023-09-19T15:58:39;23.70;99.90
5560;DHT22;2803;47.916;8.074;2023-09-19T16:01:07;23.80;99.90
5560;DHT22;2803;47.916;8.074;2023-09-19T16:03:34;23.60;99.90
5560;DHT22;2803;47.916;8.074;2023-09-19T16:06:07;23.30;99.90
5560;DHT22;2803;47.916;8.074;2023-09-19T16:08:34;23.30;99.90
5560;DHT22;2803;47.916;8.074;2023-09-19T16:11:01;23.10;99.90
5560;DHT22;2803;47.916;8.074;2023-09-19T16:13:29;23.00;99.90
5560;DHT22;2803;47.916;8.074;2023-09-19T16:15:55;23.00;99.90
5560;DHT22;2803;47.916;8.074;2023-09-19T16:18:22;23.30;99.90
5560;DHT22;2803;47.916;8.074;2023-09-19T16:20:49;23.40;99.90
5560;DHT22;2803;47.916;8.074;2023-09-19T16:23:17;23.20;99.90
5560;DHT22;2803;47.916;8.074;2023-09-19T16:25:45;23.00;99.90